Tamel Aike, Argentina
Current Conditions -  °F | °C
As of 9:00 PM on Tuesday 21 Oct 2014 (Local Time) from SCBA Reporting Station
NA  
Wind Chill: 43°   Ceiling: NA
Heat Index: 48°   Visibility: 6mi
Dew Point: 37°   Wind: 13mph
Humidity: 66%   Direction: 290°WNW
Pressure: 29.77"   Gusts: NA
Location:  48.32°S, 70.94°W
Report Text: SCBA 220000Z AUTO 29011KT 9999 09/03 Q1008
Loading
Personal Weather Stations






























Interactive Weather Map
Tropical Storm Tracking
New forecast layout! Learn more

10-Day Weather Forecast

Advertisements
Track Severe Weather on mobile